Avondale, Arizona
Current Conditions -  °F | °C
As of 3:47 PM on Monday 24 Nov 2014 (Local Time) from KGYR Reporting Station
Scattered Clouds Scattered Clouds  
Wind Chill: 72°   Ceiling: Unl
Heat Index: 72°   Visibility: 10mi
Dew Point: 16°   Wind: 12mph
Humidity: 12%   Direction: 250°WSW
Pressure: 30.17"   Gusts: NA
Location:  33.44°N, 112.34°W
Report Text: KGYR 242247Z 25010KT 10SM SCT250 22/M09 A3017
Loading
Personal Weather Stations






























Interactive Weather Map New forecast layout! Learn more

10-Day Weather Forecast

Advertisements
Track Severe Weather on mobile